createdAt,value
2023-03-06T00:00:21.784Z,97754.00
2023-03-06T00:02:48.582Z,97755.44
2023-03-06T00:05:16.120Z,97754.81
2023-03-06T00:07:43.882Z,97760.84
2023-03-06T00:10:16.279Z,97753.84
2023-03-06T00:12:42.898Z,97760.47
2023-03-06T00:15:10.744Z,97759.84
2023-03-06T00:17:37.873Z,97754.44
2023-03-06T00:20:05.892Z,97749.59
2023-03-06T00:22:32.982Z,97748.16
2023-03-06T00:24:59.785Z,97747.13
2023-03-06T00:27:26.441Z,97741.44
2023-03-06T00:29:57.656Z,97743.06
2023-03-06T00:32:25.368Z,97742.06
2023-03-06T00:34:53.620Z,97731.59
2023-03-06T00:37:21.858Z,97725.75
2023-03-06T00:39:49.618Z,97728.94
2023-03-06T00:42:18.015Z,97734.16
2023-03-06T00:44:45.249Z,97728.13
2023-03-06T00:47:13.087Z,97723.88
2023-03-06T00:49:39.652Z,97728.66
2023-03-06T00:52:06.251Z,97723.09
2023-03-06T00:54:32.845Z,97717.56
2023-03-06T00:56:59.422Z,97713.19
2023-03-06T00:59:27.605Z,97710.38
2023-03-06T01:01:54.818Z,97704.34
2023-03-06T01:04:21.632Z,97705.16
2023-03-06T01:06:48.901Z,97701.56
2023-03-06T01:09:15.554Z,97700.56
2023-03-06T01:11:42.121Z,97697.94
2023-03-06T01:14:08.760Z,97696.91
2023-03-06T01:16:35.387Z,97689.06
2023-03-06T01:19:02.146Z,97690.84
2023-03-06T01:21:28.878Z,97683.22
2023-03-06T01:23:55.494Z,97678.19
2023-03-06T01:26:22.115Z,97677.72
2023-03-06T01:28:48.771Z,97676.75
2023-03-06T01:31:15.413Z,97667.28
2023-03-06T01:33:42.026Z,97663.25
2023-03-06T01:36:12.224Z,97661.47
2023-03-06T01:38:39.173Z,97667.81
2023-03-06T01:41:06.693Z,97662.31
2023-03-06T01:43:36.700Z,97658.28
2023-03-06T01:46:22.769Z,97646.59
2023-03-06T01:48:53.670Z,97643.78
2023-03-06T01:51:20.824Z,97635.75
2023-03-06T01:53:50.496Z,97633.72
2023-03-06T01:56:17.213Z,97628.38
2023-03-06T01:58:44.780Z,97629.31
2023-03-06T02:01:13.464Z,97624.53
2023-03-06T02:03:42.284Z,97628.13
2023-03-06T02:06:09.003Z,97626.06
2023-03-06T02:08:35.788Z,97619.44
2023-03-06T02:11:07.901Z,97616.25
2023-03-06T02:13:36.396Z,97612.91
2023-03-06T02:16:03.442Z,97612.06
2023-03-06T02:18:31.758Z,97609.47
2023-03-06T02:21:02.392Z,97602.41
2023-03-06T02:23:34.028Z,97601.75
2023-03-06T02:26:02.230Z,97598.75
2023-03-06T02:28:29.003Z,97590.78
2023-03-06T02:30:56.082Z,97600.38
2023-03-06T02:33:27.132Z,97585.53
2023-03-06T02:35:58.626Z,97588.56
2023-03-06T02:38:29.250Z,97579.13
2023-03-06T02:40:58.132Z,97581.50
2023-03-06T02:43:29.522Z,97576.44
2023-03-06T02:45:56.205Z,97578.25
2023-03-06T02:48:22.861Z,97577.03
2023-03-06T02:50:49.534Z,97566.97
2023-03-06T02:53:18.122Z,97568.16
2023-03-06T02:55:45.458Z,97556.47
2023-03-06T02:58:12.650Z,97566.84
2023-03-06T03:00:40.294Z,97558.44
2023-03-06T03:03:07.557Z,97557.81
2023-03-06T03:05:34.196Z,97562.03
2023-03-06T03:08:01.064Z,97559.44
2023-03-06T03:10:27.691Z,97548.38
2023-03-06T03:12:54.300Z,97547.94
2023-03-06T03:15:24.149Z,97545.34
2023-03-06T03:17:50.974Z,97537.69
2023-03-06T03:20:20.195Z,97536.06
2023-03-06T03:22:52.316Z,97539.88
2023-03-06T03:25:21.789Z,97540.84
2023-03-06T03:27:48.717Z,97536.22
2023-03-06T03:30:15.974Z,97537.78
2023-03-06T03:32:42.578Z,97541.56
2023-03-06T03:35:11.181Z,97541.38
2023-03-06T03:37:38.135Z,97533.34
2023-03-06T03:40:06.850Z,97532.97
2023-03-06T03:42:34.552Z,97531.53
2023-03-06T03:45:01.134Z,97531.91
2023-03-06T03:47:27.809Z,97520.59
2023-03-06T03:49:54.385Z,97519.34
2023-03-06T03:52:21.076Z,97513.16
2023-03-06T03:54:47.662Z,97509.94
2023-03-06T03:57:14.257Z,97509.94
2023-03-06T03:59:40.889Z,97507.31
2023-03-06T04:02:07.528Z,97499.06
2023-03-06T04:04:34.183Z,97501.66
2023-03-06T04:07:00.842Z,97495.56
2023-03-06T04:09:27.625Z,97500.22
2023-03-06T04:11:54.296Z,97488.63
2023-03-06T04:14:20.914Z,97494.63
2023-03-06T04:16:47.607Z,97496.00
2023-03-06T04:19:14.225Z,97496.38
2023-03-06T04:21:40.802Z,97486.56
2023-03-06T04:24:07.966Z,97490.25
2023-03-06T04:26:37.837Z,97478.56
2023-03-06T04:29:04.458Z,97480.09
2023-03-06T04:31:31.138Z,97486.16
2023-03-06T04:33:57.756Z,97483.78
2023-03-06T04:36:30.884Z,97477.56
2023-03-06T04:38:58.067Z,97472.19
2023-03-06T04:41:24.747Z,97470.56
2023-03-06T04:43:51.843Z,97473.97
2023-03-06T04:46:18.540Z,97462.16
2023-03-06T04:48:45.184Z,97451.53
2023-03-06T04:51:13.582Z,97452.16
2023-03-06T04:53:40.307Z,97448.56
2023-03-06T04:56:07.304Z,97446.75
2023-03-06T04:58:33.929Z,97444.75
2023-03-06T05:01:00.600Z,97438.91
2023-03-06T05:03:27.358Z,97435.31
2023-03-06T05:05:53.978Z,97440.34
2023-03-06T05:08:21.190Z,97440.97
2023-03-06T05:10:54.817Z,97438.13
2023-03-06T05:13:21.562Z,97432.72
2023-03-06T05:15:48.174Z,97437.28
2023-03-06T05:18:14.805Z,97436.13
2023-03-06T05:20:41.404Z,97436.94
2023-03-06T05:23:08.081Z,97435.50
2023-03-06T05:25:34.695Z,97437.50
2023-03-06T05:28:01.314Z,97421.41
2023-03-06T05:30:27.954Z,97437.25
2023-03-06T05:32:54.640Z,97430.25
2023-03-06T05:35:23.328Z,97424.38
2023-03-06T05:37:50.294Z,97423.59
2023-03-06T05:40:18.176Z,97419.63
2023-03-06T05:42:45.268Z,97418.00
2023-03-06T05:45:12.120Z,97424.38
2023-03-06T05:47:38.693Z,97427.59
2023-03-06T05:50:08.040Z,97428.31
2023-03-06T05:52:34.657Z,97424.09
2023-03-06T05:55:01.293Z,97421.69
2023-03-06T05:57:27.914Z,97429.50
2023-03-06T05:59:54.650Z,97426.69
2023-03-06T06:02:21.455Z,97435.91
2023-03-06T06:04:48.286Z,97437.91
2023-03-06T06:07:17.032Z,97441.50
2023-03-06T06:09:45.592Z,97443.47
2023-03-06T06:12:13.291Z,97451.72
2023-03-06T06:14:39.998Z,97442.34
2023-03-06T06:17:07.105Z,97449.19
2023-03-06T06:19:33.767Z,97448.94
2023-03-06T06:22:02.649Z,97443.97
2023-03-06T06:24:29.853Z,97454.47
2023-03-06T06:26:58.129Z,97449.63
2023-03-06T06:29:26.122Z,97442.00
2023-03-06T06:31:53.134Z,97442.78
2023-03-06T06:34:20.343Z,97442.22
2023-03-06T06:36:47.447Z,97432.03
2023-03-06T06:39:16.515Z,97434.88
2023-03-06T06:41:57.575Z,97427.25
2023-03-06T06:44:29.124Z,97439.91
2023-03-06T06:49:42.319Z,97435.75
2023-03-06T06:52:09.100Z,97437.78
2023-03-06T06:54:35.725Z,97430.41
2023-03-06T06:57:02.316Z,97428.03
2023-03-06T06:59:28.905Z,97430.25
2023-03-06T07:01:55.475Z,97435.72
2023-03-06T07:04:22.244Z,97436.94
2023-03-06T07:06:48.835Z,97435.19
2023-03-06T07:09:15.401Z,97433.38
2023-03-06T07:11:42.003Z,97441.25
2023-03-06T07:14:09.024Z,97439.06
2023-03-06T07:16:38.859Z,97432.28
2023-03-06T07:19:06.304Z,97435.31
2023-03-06T07:21:33.250Z,97425.47
2023-03-06T07:24:00.816Z,97434.38
2023-03-06T07:26:28.420Z,97435.59
2023-03-06T07:28:55.438Z,97428.78
2023-03-06T07:31:24.740Z,97427.19
2023-03-06T07:33:52.689Z,97430.44
2023-03-06T07:36:20.484Z,97434.25
2023-03-06T07:38:47.245Z,97440.50
2023-03-06T07:41:16.379Z,97443.59
2023-03-06T07:43:44.992Z,97439.38
2023-03-06T07:46:13.135Z,97441.78
2023-03-06T07:48:40.525Z,97436.56
2023-03-06T07:51:16.049Z,97436.00
2023-03-06T07:53:42.668Z,97438.00
2023-03-06T07:56:11.089Z,97437.69
2023-03-06T07:58:39.468Z,97443.13
2023-03-06T08:01:10.442Z,97434.44
2023-03-06T08:03:37.615Z,97434.44
2023-03-06T08:06:07.593Z,97435.28
2023-03-06T08:08:35.535Z,97438.09
2023-03-06T08:11:02.329Z,97437.50
2023-03-06T08:13:28.982Z,97438.72
2023-03-06T08:15:56.740Z,97433.91
2023-03-06T08:18:23.431Z,97435.53
2023-03-06T08:20:50.083Z,97428.28
2023-03-06T08:23:16.692Z,97422.03
2023-03-06T08:25:43.298Z,97430.09
2023-03-06T08:28:13.098Z,97426.47
2023-03-06T08:30:39.709Z,97431.91
2023-03-06T08:33:06.298Z,97432.50
2023-03-06T08:35:32.944Z,97433.91
2023-03-06T08:37:59.585Z,97428.31
2023-03-06T08:40:30.398Z,97426.66
2023-03-06T08:42:56.990Z,97431.91
2023-03-06T08:45:23.754Z,97433.72
2023-03-06T08:47:50.369Z,97437.13
2023-03-06T08:50:17.228Z,97430.50
2023-03-06T08:52:43.835Z,97435.13
2023-03-06T08:55:10.820Z,97426.03
2023-03-06T08:57:37.411Z,97430.88
2023-03-06T09:00:08.872Z,97423.41
2023-03-06T09:02:35.665Z,97427.59
2023-03-06T09:05:05.841Z,97430.03
2023-03-06T09:07:32.453Z,97431.63
2023-03-06T09:09:59.235Z,97432.63
2023-03-06T09:12:27.241Z,97438.38
2023-03-06T09:14:54.729Z,97430.38
2023-03-06T09:17:21.361Z,97434.13
2023-03-06T09:19:48.005Z,97433.91
2023-03-06T09:22:14.582Z,97432.69
2023-03-06T09:24:41.542Z,97421.25
2023-03-06T09:27:08.144Z,97421.84
2023-03-06T09:29:34.718Z,97425.09
2023-03-06T09:32:01.324Z,97423.16
2023-03-06T09:34:27.998Z,97426.50
2023-03-06T09:36:57.200Z,97429.72
2023-03-06T09:39:26.174Z,97427.69
2023-03-06T09:41:53.906Z,97423.25
2023-03-06T09:44:26.058Z,97426.84
2023-03-06T09:47:19.655Z,97424.22
2023-03-06T09:50:15.756Z,97426.47
2023-03-06T09:53:15.396Z,97426.50
2023-03-06T09:55:44.203Z,97423.63
2023-03-06T09:58:21.131Z,97425.53
2023-03-06T10:01:20.464Z,97423.09
2023-03-06T10:03:52.939Z,97432.75
2023-03-06T10:06:39.611Z,97431.78
2023-03-06T10:09:13.548Z,97441.38
2023-03-06T10:12:06.665Z,97425.38
2023-03-06T10:14:48.462Z,97429.34
2023-03-06T10:17:22.535Z,97426.03
2023-03-06T10:19:49.840Z,97422.69
2023-03-06T10:22:30.756Z,97421.72
2023-03-06T10:25:28.104Z,97416.47
2023-03-06T10:27:55.598Z,97420.91
2023-03-06T10:30:23.185Z,97412.22
2023-03-06T10:33:07.534Z,97412.06
2023-03-06T10:35:51.721Z,97401.59
2023-03-06T10:38:37.839Z,97407.00
2023-03-06T10:41:16.942Z,97403.47
2023-03-06T10:44:05.506Z,97391.78
2023-03-06T10:46:36.414Z,97387.66
2023-03-06T10:49:06.120Z,97400.34
2023-03-06T10:51:34.272Z,97402.91
2023-03-06T10:54:04.428Z,97396.88
2023-03-06T10:56:35.099Z,97396.63
2023-03-06T10:59:18.082Z,97389.53
2023-03-06T11:01:47.616Z,97394.63
2023-03-06T11:04:15.205Z,97395.44
2023-03-06T11:06:42.076Z,97389.75
2023-03-06T11:09:25.808Z,97391.13
2023-03-06T11:12:08.894Z,97384.56
2023-03-06T11:14:35.486Z,97391.22
2023-03-06T11:17:05.359Z,97387.44
2023-03-06T11:19:32.983Z,97388.81
2023-03-06T11:22:02.801Z,97389.44
2023-03-06T11:24:37.467Z,97380.91
2023-03-06T11:27:22.254Z,97387.53
2023-03-06T11:29:51.699Z,97381.69
2023-03-06T11:32:22.544Z,97379.00
2023-03-06T11:34:58.065Z,97380.09
2023-03-06T11:37:33.735Z,97373.19
2023-03-06T11:40:01.359Z,97367.94
2023-03-06T11:42:38.245Z,97363.78
2023-03-06T11:45:24.953Z,97360.31
2023-03-06T11:48:20.105Z,97348.25
2023-03-06T11:50:52.565Z,97342.28
2023-03-06T11:53:23.118Z,97332.38
2023-03-06T11:56:14.880Z,97334.91
2023-03-06T11:58:58.147Z,97321.66
2023-03-06T12:01:36.802Z,97317.44
2023-03-06T12:04:23.357Z,97315.16
2023-03-06T12:06:57.859Z,97312.66
2023-03-06T12:09:36.090Z,97312.97
2023-03-06T12:12:14.808Z,97308.53
2023-03-06T12:14:56.787Z,97301.91
2023-03-06T12:18:03.177Z,97301.78
2023-03-06T12:20:31.798Z,97301.28
2023-03-06T12:23:26.724Z,97311.56
2023-03-06T12:26:21.184Z,97304.50
2023-03-06T12:29:07.385Z,97306.25
2023-03-06T12:32:09.344Z,97308.75
2023-03-06T12:35:05.879Z,97301.66
2023-03-06T12:38:02.339Z,97297.19
2023-03-06T12:40:58.571Z,97301.41
2023-03-06T12:43:40.351Z,97292.16
2023-03-06T12:46:16.032Z,97291.56
2023-03-06T12:48:48.793Z,97292.16
2023-03-06T12:51:20.457Z,97289.03
2023-03-06T12:53:49.910Z,97290.28
2023-03-06T12:56:18.450Z,97294.34
2023-03-06T12:58:51.010Z,97290.69
2023-03-06T13:01:38.247Z,97294.09
2023-03-06T13:04:35.522Z,97283.00
2023-03-06T13:07:17.305Z,97281.84
2023-03-06T13:09:59.149Z,97296.34
2023-03-06T13:12:56.344Z,97288.59
2023-03-06T13:15:41.286Z,97291.97
2023-03-06T13:18:23.044Z,97285.34
2023-03-06T13:20:51.679Z,97283.88
2023-03-06T13:23:33.584Z,97282.84
2023-03-06T13:26:08.609Z,97281.97
2023-03-06T13:28:52.206Z,97286.78
2023-03-06T13:31:34.156Z,97275.69
2023-03-06T13:34:31.413Z,97277.66
2023-03-06T13:37:33.368Z,97282.53
2023-03-06T13:39:59.923Z,97264.81
2023-03-06T13:42:28.978Z,97275.44
2023-03-06T13:44:58.023Z,97264.09
2023-03-06T13:47:26.622Z,97263.31
2023-03-06T13:49:53.283Z,97264.81
2023-03-06T13:52:38.221Z,97258.28
2023-03-06T13:55:22.900Z,97266.19
2023-03-06T13:57:59.992Z,97263.44
2023-03-06T14:00:43.130Z,97263.19
2023-03-06T14:03:10.781Z,97252.44
2023-03-06T14:05:47.758Z,97253.34
2023-03-06T14:08:19.368Z,97256.78
2023-03-06T14:10:49.025Z,97254.63
2023-03-06T14:13:23.656Z,97250.38
2023-03-06T14:15:52.816Z,97247.19
2023-03-06T14:18:23.781Z,97248.78
2023-03-06T14:21:11.792Z,97241.78
2023-03-06T14:23:44.918Z,97247.75
2023-03-06T14:26:15.579Z,97247.53
2023-03-06T14:28:45.258Z,97252.56
2023-03-06T14:31:17.859Z,97244.88
2023-03-06T14:33:54.706Z,97240.75
2023-03-06T14:36:25.627Z,97247.63
2023-03-06T14:38:59.285Z,97245.78
2023-03-06T14:41:29.408Z,97247.59
2023-03-06T14:44:20.534Z,97239.72
2023-03-06T14:46:49.927Z,97235.72
2023-03-06T14:49:19.047Z,97246.09
2023-03-06T14:51:50.252Z,97248.25
2023-03-06T14:54:26.441Z,97247.91
2023-03-06T14:57:01.537Z,97246.44
2023-03-06T14:59:31.166Z,97246.09
2023-03-06T15:02:01.512Z,97241.63
2023-03-06T15:04:36.604Z,97247.69
2023-03-06T15:07:08.300Z,97248.13
2023-03-06T15:09:37.219Z,97249.63
2023-03-06T15:12:08.518Z,97245.88
2023-03-06T15:14:38.774Z,97251.16
2023-03-06T15:17:32.785Z,97249.56
2023-03-06T15:20:00.674Z,97257.44
2023-03-06T15:22:33.309Z,97254.00
2023-03-06T15:25:16.199Z,97262.91
2023-03-06T15:27:49.837Z,97262.13
2023-03-06T15:30:26.689Z,97270.69
2023-03-06T15:33:09.606Z,97276.00
2023-03-06T15:35:38.236Z,97268.88
2023-03-06T15:38:24.937Z,97269.53
2023-03-06T15:40:57.204Z,97265.50
2023-03-06T15:43:23.810Z,97258.66
2023-03-06T15:45:53.339Z,97266.03
2023-03-06T15:48:20.018Z,97264.56
2023-03-06T15:50:46.735Z,97271.00
2023-03-06T15:53:13.406Z,97272.91
2023-03-06T15:55:40.187Z,97273.91
2023-03-06T15:58:06.800Z,97285.03
2023-03-06T16:00:36.840Z,97280.19
2023-03-06T16:03:04.410Z,97275.00
2023-03-06T16:05:31.520Z,97280.47
2023-03-06T16:07:58.324Z,97283.34
2023-03-06T16:10:29.001Z,97277.72
2023-03-06T16:13:03.046Z,97283.03
2023-03-06T16:15:33.158Z,97279.47
2023-03-06T16:18:00.393Z,97282.03
2023-03-06T16:20:28.530Z,97283.47
2023-03-06T16:22:56.331Z,97289.75
2023-03-06T16:25:25.468Z,97284.34
2023-03-06T16:28:01.658Z,97285.59
2023-03-06T16:30:34.328Z,97292.75
2023-03-06T16:33:01.988Z,97297.56
2023-03-06T16:35:28.861Z,97297.03
2023-03-06T16:37:55.529Z,97297.69
2023-03-06T16:40:25.517Z,97290.41
2023-03-06T16:42:54.069Z,97298.28
2023-03-06T16:45:23.037Z,97293.06
2023-03-06T16:47:49.649Z,97298.31
2023-03-06T16:50:33.226Z,97295.56
2023-03-06T16:52:59.937Z,97290.44
2023-03-06T16:55:27.907Z,97300.22
2023-03-06T16:57:54.789Z,97292.72
2023-03-06T17:00:24.600Z,97304.09
2023-03-06T17:02:52.372Z,97302.00
2023-03-06T17:05:19.947Z,97303.22
2023-03-06T17:07:46.824Z,97303.50
2023-03-06T17:10:16.091Z,97306.66
2023-03-06T17:12:43.648Z,97308.16
2023-03-06T17:15:11.439Z,97305.75
2023-03-06T17:17:38.108Z,97314.47
2023-03-06T17:20:08.097Z,97310.63
2023-03-06T17:22:35.860Z,97322.19
2023-03-06T17:25:03.577Z,97318.16
2023-03-06T17:27:30.239Z,97314.31
2023-03-06T17:29:57.982Z,97315.38
2023-03-06T17:32:24.796Z,97322.91
2023-03-06T17:34:51.449Z,97328.38
2023-03-06T17:37:18.353Z,97330.78
2023-03-06T17:39:45.045Z,97332.41
2023-03-06T17:42:11.616Z,97332.00
2023-03-06T17:44:38.892Z,97335.84
2023-03-06T17:47:05.997Z,97331.19
2023-03-06T17:49:32.600Z,97330.16
2023-03-06T17:52:02.799Z,97328.56
2023-03-06T17:54:30.179Z,97333.22
2023-03-06T17:57:01.054Z,97339.47
2023-03-06T17:59:28.301Z,97336.47
2023-03-06T18:01:57.677Z,97337.69
2023-03-06T18:04:24.767Z,97334.72
2023-03-06T18:06:51.392Z,97336.31
2023-03-06T18:09:18.240Z,97334.50
2023-03-06T18:11:45.368Z,97333.50
2023-03-06T18:14:12.025Z,97347.63
2023-03-06T18:16:38.821Z,97346.44
2023-03-06T18:19:05.477Z,97345.25
2023-03-06T18:21:32.089Z,97345.31
2023-03-06T18:23:58.769Z,97348.53
2023-03-06T18:26:28.167Z,97355.84
2023-03-06T18:28:58.553Z,97351.59
2023-03-06T18:31:31.734Z,97350.59
2023-03-06T18:34:02.034Z,97357.00
2023-03-06T18:36:31.870Z,97350.53
2023-03-06T18:38:59.564Z,97355.56
2023-03-06T18:41:26.436Z,97363.22
2023-03-06T18:43:55.413Z,97362.44
2023-03-06T18:46:23.298Z,97360.19
2023-03-06T18:48:50.398Z,97353.13
2023-03-06T18:51:17.878Z,97352.25
2023-03-06T18:53:44.720Z,97354.72
2023-03-06T18:56:17.882Z,97355.53
2023-03-06T18:58:45.056Z,97356.75
2023-03-06T19:01:12.197Z,97360.38
2023-03-06T19:03:38.864Z,97356.75
2023-03-06T19:06:07.907Z,97363.00
2023-03-06T19:08:35.944Z,97371.88
2023-03-06T19:11:05.825Z,97374.72
2023-03-06T19:13:32.466Z,97371.53
2023-03-06T19:15:59.406Z,97379.56
2023-03-06T19:18:30.737Z,97370.91
2023-03-06T19:21:17.433Z,97369.25
2023-03-06T19:23:44.203Z,97372.50
2023-03-06T19:26:12.284Z,97372.53
2023-03-06T19:28:41.158Z,97372.94
2023-03-06T19:31:10.945Z,97376.59
2023-03-06T19:33:40.239Z,97370.53
2023-03-06T19:36:10.540Z,97379.84
2023-03-06T19:38:38.535Z,97372.78
2023-03-06T19:41:06.512Z,97382.50
2023-03-06T19:43:33.650Z,97383.75
2023-03-06T19:46:01.702Z,97379.72
2023-03-06T19:48:32.851Z,97375.13
2023-03-06T19:51:04.813Z,97378.50
2023-03-06T19:53:33.357Z,97374.91
2023-03-06T19:56:09.203Z,97372.28
2023-03-06T19:58:37.076Z,97376.53
2023-03-06T20:01:06.882Z,97376.84
2023-03-06T20:03:34.536Z,97381.31
2023-03-06T20:06:03.216Z,97376.81
2023-03-06T20:08:30.376Z,97384.91
2023-03-06T20:10:57.127Z,97379.28
2023-03-06T20:13:24.481Z,97392.44
2023-03-06T20:15:52.423Z,97384.19
2023-03-06T20:18:19.631Z,97384.00
2023-03-06T20:20:57.313Z,97390.22
2023-03-06T20:23:24.499Z,97390.66
2023-03-06T20:25:51.391Z,97391.25
2023-03-06T20:28:18.932Z,97389.84
2023-03-06T20:30:49.750Z,97391.88
2023-03-06T20:33:17.109Z,97398.31
2023-03-06T20:35:44.709Z,97400.13
2023-03-06T20:38:12.344Z,97407.38
2023-03-06T20:40:41.328Z,97398.72
2023-03-06T20:43:09.113Z,97402.56
2023-03-06T20:45:36.401Z,97397.16
2023-03-06T20:48:03.764Z,97409.44
2023-03-06T20:50:31.070Z,97405.22
2023-03-06T20:52:59.145Z,97407.44
2023-03-06T20:55:25.869Z,97405.81
2023-03-06T20:57:53.859Z,97405.41
2023-03-06T21:00:21.567Z,97404.22
2023-03-06T21:02:48.423Z,97397.41
2023-03-06T21:05:15.839Z,97397.59
2023-03-06T21:07:42.781Z,97403.84
2023-03-06T21:10:12.069Z,97404.66
2023-03-06T21:12:38.892Z,97407.88
2023-03-06T21:15:06.505Z,97402.84
2023-03-06T21:17:34.162Z,97398.81
2023-03-06T21:20:01.032Z,97407.72
2023-03-06T21:22:30.260Z,97404.25
2023-03-06T21:24:58.584Z,97402.25
2023-03-06T21:27:26.385Z,97401.06
2023-03-06T21:29:54.009Z,97395.00
2023-03-06T21:32:22.085Z,97398.25
2023-03-06T21:34:49.199Z,97402.47
2023-03-06T21:37:17.069Z,97402.66
2023-03-06T21:39:44.585Z,97396.63
2023-03-06T21:42:12.043Z,97399.44
2023-03-06T21:44:39.732Z,97395.41
2023-03-06T21:47:06.671Z,97397.25
2023-03-06T21:49:33.285Z,97392.63
2023-03-06T21:51:59.926Z,97397.44
2023-03-06T21:54:27.117Z,97391.41
2023-03-06T21:56:53.773Z,97387.41
2023-03-06T21:59:20.374Z,97388.00
2023-03-06T22:01:47.639Z,97383.56
2023-03-06T22:04:14.506Z,97388.81
2023-03-06T22:06:41.235Z,97385.19
2023-03-06T22:09:08.562Z,97380.53
2023-03-06T22:11:37.281Z,97382.38
2023-03-06T22:14:05.680Z,97379.97
2023-03-06T22:16:32.794Z,97377.34
2023-03-06T22:19:00.596Z,97370.28
2023-03-06T22:21:27.292Z,97367.03
2023-03-06T22:23:57.779Z,97370.69
2023-03-06T22:26:26.076Z,97367.88
2023-03-06T22:28:53.324Z,97372.91
2023-03-06T22:31:25.736Z,97370.69
2023-03-06T22:33:53.722Z,97374.09
2023-03-06T22:36:21.094Z,97380.13
2023-03-06T22:38:48.706Z,97368.88
2023-03-06T22:41:17.294Z,97377.34
2023-03-06T22:43:44.005Z,97361.41
2023-03-06T22:46:13.587Z,97367.25
2023-03-06T22:48:40.879Z,97359.59
2023-03-06T22:51:09.388Z,97364.44
2023-03-06T22:53:36.779Z,97358.41
2023-03-06T22:56:05.333Z,97355.00
2023-03-06T22:58:36.932Z,97346.31
2023-03-06T23:01:04.912Z,97345.72
2023-03-06T23:03:31.626Z,97358.00
2023-03-06T23:05:58.323Z,97345.53
2023-03-06T23:08:24.968Z,97352.97
2023-03-06T23:10:51.569Z,97357.63
2023-03-06T23:13:18.160Z,97356.00
2023-03-06T23:15:44.750Z,97355.81
2023-03-06T23:18:11.351Z,97349.16
2023-03-06T23:20:42.577Z,97334.84
2023-03-06T23:23:09.822Z,97337.06
2023-03-06T23:25:36.861Z,97331.84
2023-03-06T23:28:03.696Z,97343.13
2023-03-06T23:30:30.314Z,97341.09
2023-03-06T23:32:57.051Z,97339.47
2023-03-06T23:35:23.631Z,97343.91
2023-03-06T23:37:50.323Z,97342.91
2023-03-06T23:40:17.149Z,97344.72
2023-03-06T23:42:43.745Z,97338.28
2023-03-06T23:45:10.908Z,97345.13
2023-03-06T23:47:37.522Z,97342.50
2023-03-06T23:50:04.457Z,97340.69
2023-03-06T23:52:31.118Z,97341.09
2023-03-06T23:54:57.710Z,97341.31
2023-03-06T23:57:24.314Z,97341.94
2023-03-06T23:59:50.938Z,97334.88
